Time;durP1;ratioP1;P1;durP2;ratioP2;P2;SDS_P1;SDS_P2;PMS_P1;PMS_P2;Temp;Humidity;BMP_temperature;BMP_pressure;BME280_temperature;BME280_humidity;BME280_pressure;Samples;Min_cycle;Max_cycle;Signal;HPM_P1;HPM_P2
2020/12/05 00:00:37;;;;;;;;;;;;;;;5.74;75.84;98704.39;126537;1097;21576;-59
2020/12/05 00:03:05;;;;;;;;;;;;;;;5.74;76.36;98701.62;126700;1097;22922;-59
2020/12/05 00:05:33;;;;;;;;;;;;;;;5.75;76.08;98707.92;126636;1097;23252;-58
2020/12/05 00:08:02;;;;;;;;;;;;;;;5.74;75.90;98711.92;126613;1097;23903;-56
2020/12/05 00:10:30;;;;;;;;;;;;;;;5.72;76.14;98725.48;126645;1097;21497;-58
2020/12/05 00:12:58;;;;;;;;;;;;;;;5.69;75.85;98716.14;126565;1097;21484;-57
2020/12/05 00:15:26;;;;;;;;;;;;;;;5.66;76.15;98708.81;126496;1097;21487;-56
2020/12/05 00:17:54;;;;;;;;;;;;;;;5.63;75.82;98725.60;126529;1097;21477;-58
2020/12/05 00:20:24;;;;;;;;;;;;;;;5.60;75.89;98723.81;126453;1090;24968;-58
2020/12/05 00:22:52;;;;;;;;;;;;;;;5.56;76.05;98721.26;126538;1097;21958;-58
2020/12/05 00:25:20;;;;;;;;;;;;;;;5.55;76.10;98716.95;126464;1097;21561;-58
2020/12/05 00:27:48;;;;;;;;;;;;;;;5.56;76.04;98717.72;126481;1097;24622;-59
2020/12/05 00:30:16;;;;;;;;;;;;;;;5.56;76.07;98723.26;126465;1097;24541;-58
2020/12/05 00:32:45;;;;;;;;;;;;;;;5.57;76.14;98716.46;126614;1097;21565;-60
2020/12/05 00:35:13;;;;;;;;;;;;;;;5.56;76.02;98717.72;126511;1097;21532;-57
2020/12/05 00:37:43;;;;;;;;;;;;;;;5.56;75.70;98726.02;126511;1097;21497;-60
2020/12/05 00:40:11;;;;;;;;;;;;;;;5.57;75.88;98722.77;126325;1097;24511;-60
2020/12/05 00:42:39;;;;;;;;;;;;;;;5.57;75.87;98724.77;126128;1097;21509;-58
2020/12/05 00:45:08;;;;;;;;;;;;;;;5.60;76.00;98730.13;126590;1097;21501;-59
2020/12/05 00:47:36;;;;;;;;;;;;;;;5.63;76.12;98733.91;126663;1097;24241;-57
2020/12/05 00:50:04;;;;;;;;;;;;;;;5.66;75.81;98725.42;126580;1097;21497;-59
2020/12/05 00:52:32;;;;;;;;;;;;;;;5.71;75.78;98733.03;126584;1097;21560;-57
2020/12/05 00:55:00;;;;;;;;;;;;;;;5.74;76.16;98740.38;126526;1097;24437;-55
2020/12/05 00:57:29;;;;;;;;;;;;;;;5.79;76.05;98743.71;126569;1097;24159;-58
2020/12/05 00:59:57;;;;;;;;;;;;;;;5.82;75.84;98737.19;126607;1097;21493;-59
2020/12/05 01:02:26;;;;;;;;;;;;;;;5.86;75.91;98721.93;126636;1096;21494;-56
2020/12/05 01:04:54;;;;;;;;;;;;;;;5.87;75.52;98729.01;126680;1097;22688;-59
2020/12/05 01:07:25;;;;;;;;;;;;;;;5.91;75.49;98739.88;126562;1097;21478;-58
2020/12/05 01:09:53;;;;;;;;;;;;;;;5.97;75.29;98729.63;126659;1097;21481;-60
2020/12/05 01:12:21;;;;;;;;;;;;;;;5.99;75.08;98724.36;126621;1096;21471;-58
2020/12/05 01:14:49;;;;;;;;;;;;;;;6.02;75.55;98729.69;126634;1097;21497;-59
2020/12/05 01:17:22;;;;;;;;;;;;;;;6.05;75.74;98725.19;126550;1097;21563;-58
2020/12/05 01:19:52;;;;;;;;;;;;;;;6.07;75.67;98725.47;126664;1097;22895;-58
2020/12/05 01:22:20;;;;;;;;;;;;;;;6.11;75.54;98723.25;126742;1097;21465;-58
2020/12/05 01:24:48;;;;;;;;;;;;;;;6.10;75.72;98713.43;126530;1097;21493;-56
2020/12/05 01:27:17;;;;;;;;;;;;;;;6.13;75.75;98710.44;126581;1097;25743;-58
2020/12/05 01:29:45;;;;;;;;;;;;;;;6.15;75.22;98723.80;126780;1097;25684;-58
2020/12/05 01:32:14;;;;;;;;;;;;;;;6.16;75.52;98726.11;126627;1097;21509;-56
2020/12/05 01:34:42;;;;;;;;;;;;;;;6.20;75.46;98726.66;126630;1097;21674;-59
2020/12/05 01:37:10;;;;;;;;;;;;;;;6.21;75.70;98722.63;126152;1097;21476;-59
2020/12/05 01:39:38;;;;;;;;;;;;;;;6.24;75.20;98726.44;126436;1097;21476;-58
2020/12/05 01:42:07;;;;;;;;;;;;;;;6.26;75.51;98726.72;126466;1097;22955;-58
2020/12/05 01:44:35;;;;;;;;;;;;;;;6.29;75.33;98736.84;126578;1097;21493;-59
2020/12/05 01:47:03;;;;;;;;;;;;;;;6.32;75.48;98735.86;126688;1097;22357;-60
2020/12/05 01:49:32;;;;;;;;;;;;;;;6.35;75.33;98740.44;126590;1097;21506;-58
2020/12/05 01:52:01;;;;;;;;;;;;;;;6.37;75.57;98747.00;126713;1097;21624;-58
2020/12/05 01:54:31;;;;;;;;;;;;;;;6.38;75.13;98747.77;126821;1097;21480;-57
2020/12/05 01:57:00;;;;;;;;;;;;;;;6.40;75.05;98746.03;126748;1097;24200;-59
2020/12/05 01:59:29;;;;;;;;;;;;;;;6.41;75.16;98752.34;126441;1097;21502;-58
2020/12/05 02:01:57;;;;;;;;;;;;;;;6.41;75.52;98750.31;126929;1097;21477;-58
2020/12/05 02:04:28;;;;;;;;;;;;;;;6.42;75.51;98748.31;126739;1097;22300;-57
2020/12/05 02:07:06;;;;;;;;;;;;;;;6.41;75.54;98747.55;126550;1097;21476;-58
2020/12/05 02:09:37;;;;;;;;;;;;;;;6.42;75.41;98760.17;126518;1097;21505;-57
2020/12/05 02:12:12;;;;;;;;;;;;;;;6.42;75.98;98751.85;126591;1097;23175;-60
2020/12/05 02:14:43;;;;;;;;;;;;;;;6.41;76.04;98747.55;126822;1097;24200;-61
2020/12/05 02:17:13;;;;;;;;;;;;;;;6.43;75.78;98753.36;126588;1097;21640;-56
2020/12/05 02:19:44;;;;;;;;;;;;;;;6.44;75.89;98754.12;126579;1097;21492;-58
2020/12/05 02:22:14;;;;;;;;;;;;;;;6.43;75.92;98744.30;126726;1097;21821;-59
2020/12/05 02:24:42;;;;;;;;;;;;;;;6.44;76.11;98743.81;126609;1097;21502;-59
2020/12/05 02:27:11;;;;;;;;;;;;;;;6.44;75.58;98743.81;126589;1097;23263;-58
2020/12/05 02:29:39;;;;;;;;;;;;;;;6.46;75.93;98730.22;126572;1097;21482;-56
2020/12/05 02:32:09;;;;;;;;;;;;;;;6.47;76.31;98731.77;126505;1097;21564;-58
2020/12/05 02:34:37;;;;;;;;;;;;;;;6.46;76.30;98724.68;126654;1097;21502;-57
2020/12/05 02:37:10;;;;;;;;;;;;;;;6.49;76.33;98725.72;126564;1097;25141;-58
2020/12/05 02:39:39;;;;;;;;;;;;;;;6.48;76.14;98708.32;126704;1097;21493;-59
2020/12/05 02:42:10;;;;;;;;;;;;;;;6.51;76.05;98710.12;126550;1096;21504;-58
2020/12/05 02:44:45;;;;;;;;;;;;;;;6.53;76.11;98724.27;126596;1097;21510;-59
2020/12/05 02:47:13;;;;;;;;;;;;;;;6.56;75.91;98714.19;126674;1097;24359;-57
2020/12/05 02:49:42;;;;;;;;;;;;;;;6.58;76.53;98702.63;126497;1097;21497;-60
2020/12/05 02:52:12;;;;;;;;;;;;;;;6.59;76.57;98706.91;126630;1097;25872;-59
2020/12/05 02:54:41;;;;;;;;;;;;;;;6.60;76.72;98689.03;126615;1097;21607;-59
2020/12/05 02:57:08;;;;;;;;;;;;;;;6.63;76.37;98697.13;126538;1097;21509;-60
2020/12/05 02:59:36;;;;;;;;;;;;;;;6.65;76.33;98716.05;126524;1097;21597;-58
2020/12/05 03:02:05;;;;;;;;;;;;;;;6.67;76.82;98725.41;126815;1097;23109;-56
2020/12/05 03:04:33;;;;;;;;;;;;;;;6.70;76.48;98723.67;126693;1097;21523;-58
2020/12/05 03:07:05;;;;;;;;;;;;;;;6.71;76.63;98714.85;126537;1097;24254;-61
2020/12/05 03:09:33;;;;;;;;;;;;;;;6.74;76.42;98721.44;126578;1095;21505;-55
2020/12/05 03:12:01;;;;;;;;;;;;;;;6.76;76.41;98710.61;126788;1097;21483;-59
2020/12/05 03:14:29;;;;;;;;;;;;;;;6.78;76.88;98708.11;126640;1097;21481;-59
2020/12/05 03:16:57;;;;;;;;;;;;;;;6.80;76.80;98714.70;126705;1097;21502;-59
2020/12/05 03:19:25;;;;;;;;;;;;;;;6.82;76.82;98728.84;126566;1097;21707;-58
2020/12/05 03:21:53;;;;;;;;;;;;;;;6.84;76.75;98734.66;126739;1097;21520;-58
2020/12/05 03:24:22;;;;;;;;;;;;;;;6.84;76.70;98726.33;126621;1097;21497;-59
2020/12/05 03:26:50;;;;;;;;;;;;;;;6.85;76.47;98713.97;126791;1097;21514;-60
2020/12/05 03:29:18;;;;;;;;;;;;;;;6.87;77.16;98707.95;126550;1097;23896;-58
2020/12/05 03:31:49;;;;;;;;;;;;;;;6.87;77.15;98716.28;126708;1097;21493;-58
2020/12/05 03:34:17;;;;;;;;;;;;;;;6.89;77.04;98730.42;126739;1097;23167;-58
2020/12/05 03:36:46;;;;;;;;;;;;;;;6.92;77.30;98721.09;126545;1097;23579;-57
2020/12/05 03:39:13;;;;;;;;;;;;;;;6.92;77.19;98730.19;126741;1097;21497;-59
2020/12/05 03:41:41;;;;;;;;;;;;;;;6.92;76.90;98729.42;126567;1097;21626;-58
2020/12/05 03:44:09;;;;;;;;;;;;;;;6.93;77.49;98730.95;126715;1097;21497;-60
2020/12/05 03:46:37;;;;;;;;;;;;;;;6.96;77.01;98729.95;126746;1097;21499;-58
2020/12/05 03:49:06;;;;;;;;;;;;;;;6.96;77.21;98716.86;126845;1097;21515;-58
2020/12/05 03:51:34;;;;;;;;;;;;;;;6.98;76.77;98713.58;126630;1097;21502;-57
2020/12/05 03:54:02;;;;;;;;;;;;;;;6.99;76.64;98721.44;126633;1097;21474;-59
2020/12/05 03:56:30;;;;;;;;;;;;;;;7.00;76.75;98720.17;126632;1097;21462;-58
2020/12/05 03:58:58;;;;;;;;;;;;;;;7.02;76.70;98714.13;126557;1097;21623;-58
2020/12/05 04:01:25;;;;;;;;;;;;;;;7.03;76.81;98713.65;126639;1097;21640;-57
2020/12/05 04:03:53;;;;;;;;;;;;;;;7.05;76.80;98708.37;126575;1097;21745;-58
2020/12/05 04:06:22;;;;;;;;;;;;;;;7.08;76.82;98714.92;126508;1097;25722;-58
2020/12/05 04:08:50;;;;;;;;;;;;;;;7.09;77.29;98730.34;126653;1097;21502;-58
2020/12/05 04:11:18;;;;;;;;;;;;;;;7.11;76.82;98717.50;126554;1097;21497;-60
2020/12/05 04:13:46;;;;;;;;;;;;;;;7.14;76.71;98726.83;126685;1097;21493;-58
2020/12/05 04:16:16;;;;;;;;;;;;;;;7.18;77.18;98730.17;126539;1097;21766;-59
2020/12/05 04:18:45;;;;;;;;;;;;;;;7.19;77.49;98742.78;126714;1097;21567;-59
2020/12/05 04:21:13;;;;;;;;;;;;;;;7.21;76.86;98743.05;126613;1097;21484;-58
2020/12/05 04:23:41;;;;;;;;;;;;;;;7.25;77.18;98766.55;126657;1097;21721;-58
2020/12/05 04:26:09;;;;;;;;;;;;;;;7.29;77.15;98769.10;126638;1095;21642;-57
2020/12/05 04:28:38;;;;;;;;;;;;;;;7.33;76.74;98759.30;126628;1097;23271;-58
2020/12/05 04:31:05;;;;;;;;;;;;;;;7.38;76.70;98760.61;126670;1097;21556;-56
2020/12/05 04:33:34;;;;;;;;;;;;;;;7.41;76.82;98783.85;126699;1097;24435;-57
2020/12/05 04:36:02;;;;;;;;;;;;;;;7.44;76.53;98777.30;126705;1096;21496;-57
2020/12/05 04:38:30;;;;;;;;;;;;;;;7.48;76.61;98773.05;126586;1097;21498;-57
2020/12/05 04:40:59;;;;;;;;;;;;;;;7.53;76.37;98774.35;126808;1097;21497;-57
2020/12/05 04:43:27;;;;;;;;;;;;;;;7.56;76.63;98790.78;126627;1097;25773;-56
2020/12/05 04:45:56;;;;;;;;;;;;;;;7.60;76.54;98793.32;126660;1097;23167;-58
2020/12/05 04:48:24;;;;;;;;;;;;;;;7.63;76.09;98804.23;126760;1097;21497;-58
2020/12/05 04:50:54;;;;;;;;;;;;;;;7.64;76.23;98802.19;126744;1097;21492;-57
2020/12/05 04:53:23;;;;;;;;;;;;;;;7.65;75.91;98800.95;126626;1097;21755;-59
2020/12/05 04:55:52;;;;;;;;;;;;;;;7.66;76.46;98817.11;126781;1097;21505;-57
2020/12/05 04:58:21;;;;;;;;;;;;;;;7.67;76.12;98821.42;126757;1097;21499;-57
2020/12/05 05:00:53;;;;;;;;;;;;;;;7.68;76.47;98811.05;126758;1096;24212;-59
2020/12/05 05:03:22;;;;;;;;;;;;;;;7.68;76.25;98802.72;126757;1097;21902;-59
2020/12/05 05:05:51;;;;;;;;;;;;;;;7.67;76.08;98815.88;126688;1097;24269;-57
2020/12/05 05:08:20;;;;;;;;;;;;;;;7.68;75.68;98822.16;126731;1097;21570;-57
2020/12/05 05:10:47;;;;;;;;;;;;;;;7.67;75.91;98826.21;126644;1097;21493;-59
2020/12/05 05:13:17;;;;;;;;;;;;;;;7.68;75.97;98809.05;126589;1097;21502;-58
2020/12/05 05:15:46;;;;;;;;;;;;;;;7.68;76.24;98805.50;126829;1097;21506;-57
2020/12/05 05:18:14;;;;;;;;;;;;;;;7.69;76.08;98799.47;126732;1097;21502;-58
2020/12/05 05:20:44;;;;;;;;;;;;;;;7.71;75.63;98790.64;126773;1097;21599;-57
2020/12/05 05:23:15;;;;;;;;;;;;;;;7.69;75.63;98796.69;126712;1097;24195;-57
2020/12/05 05:25:55;;;;;;;;;;;;;;;7.67;76.11;98803.98;126633;1097;25741;-58
2020/12/05 05:28:26;;;;;;;;;;;;;;;7.66;75.48;98796.90;126721;1097;21560;-57
2020/12/05 05:30:55;;;;;;;;;;;;;;;7.64;76.14;98777.95;126667;1097;21497;-58
2020/12/05 05:33:24;;;;;;;;;;;;;;;7.63;76.16;98776.45;126746;1097;21560;-60
2020/12/05 05:35:52;;;;;;;;;;;;;;;7.64;75.52;98766.08;126735;1096;21528;-60
2020/12/05 05:38:21;;;;;;;;;;;;;;;7.61;75.94;98761.53;126583;1097;21497;-58
2020/12/05 05:40:49;;;;;;;;;;;;;;;7.61;75.43;98772.64;126841;1097;21570;-60
2020/12/05 05:43:19;;;;;;;;;;;;;;;7.59;75.90;98770.37;126619;1097;21517;-56
2020/12/05 05:45:48;;;;;;;;;;;;;;;7.59;76.15;98767.59;126818;1097;21497;-61
2020/12/05 05:48:16;;;;;;;;;;;;;;;7.59;76.08;98758.48;126921;1097;21922;-59
2020/12/05 05:50:45;;;;;;;;;;;;;;;7.60;75.69;98757.22;126731;1096;21550;-58
2020/12/05 05:53:22;;;;;;;;;;;;;;;7.60;75.29;98771.10;126588;1097;21493;-55
2020/12/05 05:55:51;;;;;;;;;;;;;;;7.59;75.92;98769.59;126548;1097;21505;-60
2020/12/05 05:58:20;;;;;;;;;;;;;;;7.61;75.97;98781.73;126620;1098;21555;-58
2020/12/05 06:00:49;;;;;;;;;;;;;;;7.63;75.56;98772.91;126641;1097;21474;-57
2020/12/05 06:03:19;;;;;;;;;;;;;;;7.65;75.86;98781.50;126638;1097;21543;-58
2020/12/05 06:05:49;;;;;;;;;;;;;;;7.66;75.43;98760.79;126650;1097;21491;-59
2020/12/05 06:08:18;;;;;;;;;;;;;;;7.68;75.82;98759.05;127805;1097;21497;-57
2020/12/05 06:10:58;;;;;;;;;;;;;;;7.70;75.37;98741.88;126598;1097;21498;-55
2020/12/05 06:13:27;;;;;;;;;;;;;;;7.71;75.49;98735.08;126349;1097;21564;-57
2020/12/05 06:15:55;;;;;;;;;;;;;;;7.74;75.05;98731.33;126116;1097;21509;-59
2020/12/05 06:18:24;;;;;;;;;;;;;;;7.76;75.33;98717.70;126079;1097;21506;-60
2020/12/05 06:20:53;;;;;;;;;;;;;;;7.78;75.06;98721.48;126204;1097;24263;-58
2020/12/05 06:23:27;;;;;;;;;;;;;;;7.80;75.29;98721.00;126372;1097;21911;-59
2020/12/05 06:25:56;;;;;;;;;;;;;;;7.81;75.32;98725.29;126330;1097;21694;-59
2020/12/05 06:28:25;;;;;;;;;;;;;;;7.83;75.18;98729.09;126178;1097;21509;-57
2020/12/05 06:30:54;;;;;;;;;;;;;;;7.86;75.12;98724.57;126233;1097;23137;-57
2020/12/05 06:33:37;;;;;;;;;;;;;;;7.87;74.80;98732.40;126629;1096;23251;-58
2020/12/05 06:36:19;;;;;;;;;;;;;;;7.92;74.32;98733.70;126376;1097;21493;-58
2020/12/05 06:38:47;;;;;;;;;;;;;;;7.95;75.18;98732.69;126115;1097;25804;-59
2020/12/05 06:41:31;;;;;;;;;;;;;;;7.98;75.17;98732.47;125731;1097;21509;-58
2020/12/05 06:44:08;;;;;;;;;;;;;;;8.03;74.83;98733.73;125880;1097;24195;-58
2020/12/05 06:46:54;;;;;;;;;;;;;;;8.06;74.83;98743.87;125998;1097;21557;-59
2020/12/05 06:49:40;;;;;;;;;;;;;;;8.07;75.22;98748.16;126179;1097;21493;-59
2020/12/05 06:52:22;;;;;;;;;;;;;;;8.10;75.02;98752.73;126189;1097;21497;-56
2020/12/05 06:54:51;;;;;;;;;;;;;;;8.11;74.36;98754.27;125936;1098;21570;-58
2020/12/05 06:57:20;;;;;;;;;;;;;;;8.11;74.33;98768.90;126195;1098;21592;-58
2020/12/05 06:59:48;;;;;;;;;;;;;;;8.12;74.20;98775.23;126131;1098;23239;-59
2020/12/05 07:02:28;;;;;;;;;;;;;;;8.13;74.88;98779.55;125935;1098;21493;-58
2020/12/05 07:05:21;;;;;;;;;;;;;;;8.13;74.82;98785.10;126160;1098;21496;-58
2020/12/05 07:07:50;;;;;;;;;;;;;;;8.12;74.85;98789.89;126028;1098;21513;-58
2020/12/05 07:10:19;;;;;;;;;;;;;;;8.13;74.79;98805.30;126066;1093;21586;-58
2020/12/05 07:12:47;;;;;;;;;;;;;;;8.14;74.83;98794.95;125937;1098;24517;-58
2020/12/05 07:15:23;;;;;;;;;;;;;;;8.16;74.44;98807.09;126077;1098;21496;-59
2020/12/05 07:17:52;;;;;;;;;;;;;;;8.22;74.20;98804.34;126065;1093;21551;-58
2020/12/05 07:20:20;;;;;;;;;;;;;;;8.24;74.43;98815.72;126357;1098;24632;-59
2020/12/05 07:22:50;;;;;;;;;;;;;;;8.26;74.47;98826.36;126224;1098;24498;-59
2020/12/05 07:25:18;;;;;;;;;;;;;;;8.25;74.20;98822.84;126020;1098;21531;-58
2020/12/05 07:27:48;;;;;;;;;;;;;;;8.25;74.67;98830.39;126175;1098;21580;-57
2020/12/05 08:55:51;;;;;;;;;;;;;;;9.12;73.44;98942.63;126024;1097;21509;-55
2020/12/05 08:58:20;;;;;;;;;;;;;;;9.13;72.58;98942.13;126408;1090;25700;-56
2020/12/05 09:00:51;;;;;;;;;;;;;;;9.13;73.22;98935.78;126213;1097;24508;-53
2020/12/05 09:03:24;;;;;;;;;;;;;;;9.14;72.71;98940.10;126207;1097;21678;-52
2020/12/05 09:05:53;;;;;;;;;;;;;;;9.13;72.85;98950.47;126221;1090;21564;-55
2020/12/05 09:08:23;;;;;;;;;;;;;;;9.13;73.19;98955.27;126240;1096;21525;-55
2020/12/05 09:10:51;;;;;;;;;;;;;;;9.12;72.95;98959.33;128182;1091;108449;-78
2020/12/05 09:13:19;;;;;;;;;;;;;;;9.11;72.92;98961.34;127452;1095;24313;-76
2020/12/05 09:15:54;;;;;;;;;;;;;;;9.12;73.00;98964.91;127079;1097;21499;-75
2020/12/05 09:18:22;;;;;;;;;;;;;;;9.10;72.98;98972.99;127038;1097;21531;-75
2020/12/05 09:20:50;;;;;;;;;;;;;;;9.10;73.02;98964.64;127050;1097;25731;-75
2020/12/05 09:23:27;;;;;;;;;;;;;;;9.07;73.21;98963.61;126964;1097;21492;-74
2020/12/05 09:26:03;;;;;;;;;;;;;;;9.05;72.99;98955.00;126965;1097;22203;-74
2020/12/05 09:28:32;;;;;;;;;;;;;;;9.03;72.87;98965.10;127095;1097;21494;-75
2020/12/05 09:31:04;;;;;;;;;;;;;;;8.99;72.87;98954.21;127067;1096;24526;-75
2020/12/05 09:33:31;;;;;;;;;;;;;;;8.95;73.70;98954.45;126967;1097;21953;-75
2020/12/05 09:35:59;;;;;;;;;;;;;;;8.91;73.19;98962.28;126987;1097;21494;-75
2020/12/05 09:38:27;;;;;;;;;;;;;;;8.88;73.52;98960.48;126987;1096;24510;-75
2020/12/05 09:40:55;;;;;;;;;;;;;;;8.87;73.30;98953.41;126942;1097;24234;-76
2020/12/05 09:43:23;;;;;;;;;;;;;;;8.87;73.15;98953.41;126934;1097;24552;-76
2020/12/05 09:45:51;;;;;;;;;;;;;;;8.88;73.25;98954.15;126959;1097;21601;-75
2020/12/05 09:48:19;;;;;;;;;;;;;;;8.89;73.79;98956.45;126968;1097;21492;-75
2020/12/05 09:50:47;;;;;;;;;;;;;;;8.90;73.06;98971.11;126941;1096;25731;-75
2020/12/05 09:53:15;;;;;;;;;;;;;;;8.91;73.03;98970.63;127037;1097;24488;-74
2020/12/05 09:55:43;;;;;;;;;;;;;;;8.92;73.53;98972.14;126877;1097;25734;-74
2020/12/05 09:58:11;;;;;;;;;;;;;;;8.93;73.37;98979.25;126922;1097;25767;-75
2020/12/05 10:00:39;;;;;;;;;;;;;;;8.93;73.29;98984.81;127012;1096;24517;-74
2020/12/05 10:03:07;;;;;;;;;;;;;;;8.94;73.70;98989.10;127224;1097;21527;-75
2020/12/05 10:05:35;;;;;;;;;;;;;;;8.95;73.21;98987.09;127409;1090;21496;-74
2020/12/05 10:08:05;;;;;;;;;;;;;;;8.98;73.20;98986.08;127384;1097;22925;-74
2020/12/05 10:10:33;;;;;;;;;;;;;;;9.00;73.27;98980.03;130128;1090;23563;-74
2020/12/05 10:13:01;;;;;;;;;;;;;;;9.01;73.05;98973.96;130117;1097;21437;-74
2020/12/05 10:15:29;;;;;;;;;;;;;;;9.03;73.25;98977.00;130110;1096;21372;-75
2020/12/05 10:17:58;;;;;;;;;;;;;;;9.06;72.54;98981.59;130110;1097;21433;-74
2020/12/05 10:20:27;;;;;;;;;;;;;;;9.07;72.87;98980.31;130114;1090;21455;-74
2020/12/05 10:22:55;;;;;;;;;;;;;;;9.09;72.93;98982.59;130146;1098;21447;-74
2020/12/05 10:25:23;;;;;;;;;;;;;;;9.10;73.20;98970.98;130119;1097;21389;-74
2020/12/05 10:27:51;;;;;;;;;;;;;;;9.12;72.73;98962.89;130141;1090;21408;-75
2020/12/05 10:30:18;;;;;;;;;;;;;;;9.15;72.74;98950.73;129969;1090;21434;-74
2020/12/05 10:32:46;;;;;;;;;;;;;;;9.19;72.02;98961.62;130110;1090;21453;-74
2020/12/05 10:35:14;;;;;;;;;;;;;;;9.23;72.47;98967.73;130122;1097;22119;-77
2020/12/05 10:37:42;;;;;;;;;;;;;;;9.25;72.23;98979.87;130140;1097;21423;-78
2020/12/05 10:40:10;;;;;;;;;;;;;;;9.29;72.74;98993.58;130110;1097;22219;-77
2020/12/05 10:42:38;;;;;;;;;;;;;;;9.32;72.92;99001.69;130177;1097;21429;-77
2020/12/05 10:45:06;;;;;;;;;;;;;;;9.36;71.49;99012.58;130136;1098;21408;-78
2020/12/05 10:47:33;;;;;;;;;;;;;;;9.41;72.64;99020.22;130131;1097;22024;-77
2020/12/05 10:50:01;;;;;;;;;;;;;;;9.46;72.09;99014.66;130140;1097;21436;-79
2020/12/05 10:52:30;;;;;;;;;;;;;;;9.50;71.83;99031.89;130163;1096;21478;-77
2020/12/05 10:54:57;;;;;;;;;;;;;;;9.56;72.26;99035.45;130153;1090;21423;-78
2020/12/05 10:57:25;;;;;;;;;;;;;;;9.60;71.89;99032.45;128090;1090;24317;-77
2020/12/05 10:59:54;;;;;;;;;;;;;;;9.63;72.17;99039.79;127387;1097;21489;-77
2020/12/05 11:02:22;;;;;;;;;;;;;;;9.65;71.48;99056.77;127362;1097;21525;-78
2020/12/05 11:04:50;;;;;;;;;;;;;;;9.65;71.58;99057.54;127286;1096;24416;-77
2020/12/05 11:07:18;;;;;;;;;;;;;;;9.67;71.55;99065.39;127320;1097;24193;-77
2020/12/05 11:09:46;;;;;;;;;;;;;;;9.68;71.64;99066.93;127456;1096;21560;-77
2020/12/05 11:12:13;;;;;;;;;;;;;;;9.72;71.48;99075.80;127525;1095;21500;-77
2020/12/05 11:14:42;;;;;;;;;;;;;;;9.74;71.76;99078.86;127469;1097;23170;-77
2020/12/05 11:17:10;;;;;;;;;;;;;;;9.76;71.82;99090.27;127493;1097;21605;-78
2020/12/05 11:19:37;;;;;;;;;;;;;;;9.78;72.30;99091.30;127514;1090;26740;-77
2020/12/05 11:22:05;;;;;;;;;;;;;;;9.82;71.88;99095.84;127460;1097;23137;-77
2020/12/05 11:24:35;;;;;;;;;;;;;;;9.84;71.69;99088.52;127333;1097;21493;-77
2020/12/05 11:27:02;;;;;;;;;;;;;;;9.87;72.33;99101.44;129025;1097;21476;-78
2020/12/05 11:29:30;;;;;;;;;;;;;;;9.91;71.90;99109.58;127889;1097;24197;-78
2020/12/05 11:31:58;;;;;;;;;;;;;;;9.93;72.40;99102.21;128013;1097;21564;-78
2020/12/05 11:34:26;;;;;;;;;;;;;;;9.95;72.27;99108.08;127988;1097;21477;-78
2020/12/05 11:36:54;;;;;;;;;;;;;;;9.98;72.21;99109.84;127953;1097;22260;-78
2020/12/05 11:39:22;;;;;;;;;;;;;;;10.02;71.98;99113.16;128014;1097;21506;-78
2020/12/05 11:41:50;;;;;;;;;;;;;;;10.06;71.35;99110.88;127984;1097;21539;-78
2020/12/05 11:44:18;;;;;;;;;;;;;;;10.12;71.43;99108.89;128668;1097;21484;-79
2020/12/05 11:46:49;;;;;;;;;;;;;;;10.16;71.15;99109.41;127661;1096;21572;-79
2020/12/05 11:49:17;;;;;;;;;;;;;;;10.21;71.41;99119.06;128412;1097;24219;-79
2020/12/05 11:51:45;;;;;;;;;;;;;;;10.23;71.19;99125.67;128510;1090;21492;-79
2020/12/05 11:54:13;;;;;;;;;;;;;;;10.26;70.84;99126.69;128588;1097;21481;-79
2020/12/05 11:56:41;;;;;;;;;;;;;;;10.28;71.17;99121.38;128268;1096;21500;-81
2020/12/05 11:59:09;;;;;;;;;;;;;;;10.29;70.79;99134.81;128355;1097;22129;-81
2020/12/05 12:01:41;;;;;;;;;;;;;;;10.32;70.80;99119.09;128766;1097;21507;-79
2020/12/05 12:04:09;;;;;;;;;;;;;;;10.33;70.97;99124.16;128716;1098;22187;-80
2020/12/05 12:06:37;;;;;;;;;;;;;;;10.34;71.36;99128.49;128791;1090;22256;-79
2020/12/05 12:09:07;;;;;;;;;;;;;;;10.37;70.71;99135.06;128877;1097;21559;-81
2020/12/05 12:11:36;;;;;;;;;;;;;;;10.38;71.12;99145.75;128945;1097;21481;-78
2020/12/05 12:14:04;;;;;;;;;;;;;;;10.39;71.17;99154.86;129013;1090;21497;-78
2020/12/05 12:16:32;;;;;;;;;;;;;;;10.39;71.37;99149.27;128601;1098;21467;-80
2020/12/05 12:19:00;;;;;;;;;;;;;;;10.40;70.58;99139.66;128834;1096;21510;-80
2020/12/05 12:21:28;;;;;;;;;;;;;;;10.40;71.54;99145.23;128556;1098;21493;-80
2020/12/05 12:23:56;;;;;;;;;;;;;;;10.41;70.43;99146.74;127696;1097;21950;-80
2020/12/05 12:26:30;;;;;;;;;;;;;;;10.43;70.37;99144.20;128962;1096;21501;-78
2020/12/05 12:28:59;;;;;;;;;;;;;;;10.46;70.19;99152.36;129083;1097;21478;-80
2020/12/05 12:31:30;;;;;;;;;;;;;;;10.48;70.85;99152.61;130049;1097;21888;-81
2020/12/05 12:33:59;;;;;;;;;;;;;;;10.51;70.61;99157.16;129115;1097;21506;-80
2020/12/05 12:36:27;;;;;;;;;;;;;;;10.55;70.86;99159.73;128676;1097;24200;-80
2020/12/05 12:38:55;;;;;;;;;;;;;;;10.56;70.15;99162.00;128726;1095;21506;-80
2020/12/05 12:41:23;;;;;;;;;;;;;;;10.57;71.05;99177.47;128864;1097;21494;-80
2020/12/05 12:43:52;;;;;;;;;;;;;;;10.57;70.04;99171.89;128730;1090;23741;-79
2020/12/05 12:46:22;;;;;;;;;;;;;;;10.59;70.50;99179.78;128722;1097;21491;-79
2020/12/05 12:48:51;;;;;;;;;;;;;;;10.57;70.65;99185.84;128943;1090;21500;-79
2020/12/05 12:51:23;;;;;;;;;;;;;;;10.57;70.37;99188.63;128900;1098;25204;-79
2020/12/05 12:53:51;;;;;;;;;;;;;;;10.56;70.97;99189.14;128717;1093;22579;-78
2020/12/05 12:56:20;;;;;;;;;;;;;;;10.54;70.80;99195.23;128817;1090;21494;-78
2020/12/05 12:58:49;;;;;;;;;;;;;;;10.52;70.26;99194.98;128742;1097;21499;-78
2020/12/05 13:01:18;;;;;;;;;;;;;;;10.50;70.24;99191.94;127868;1097;21639;-79
2020/12/05 13:03:46;;;;;;;;;;;;;;;10.49;70.36;99179.23;127947;1090;21627;-79
2020/12/05 13:06:17;;;;;;;;;;;;;;;10.50;70.24;99180.77;127966;1090;24435;-78
2020/12/05 13:08:46;;;;;;;;;;;;;;;10.52;70.52;99183.05;127912;1090;21511;-79
2020/12/05 13:11:14;;;;;;;;;;;;;;;10.53;70.61;99190.91;128747;1090;21496;-79
2020/12/05 13:13:42;;;;;;;;;;;;;;;10.54;70.23;99184.08;128818;1097;21540;-80
2020/12/05 13:16:10;;;;;;;;;;;;;;;10.53;70.63;99179.75;128842;1095;21554;-79
2020/12/05 13:18:39;;;;;;;;;;;;;;;10.53;70.13;99176.95;128897;1096;21573;-79
2020/12/05 13:21:07;;;;;;;;;;;;;;;10.52;70.73;99174.67;128923;1097;21474;-79
2020/12/05 13:23:35;;;;;;;;;;;;;;;10.51;70.69;99168.33;129029;1090;23129;-80
2020/12/05 13:26:03;;;;;;;;;;;;;;;10.52;70.12;99174.67;128864;1098;21533;-80
2020/12/05 13:28:31;;;;;;;;;;;;;;;10.51;70.50;99179.49;128713;1097;21499;-80
2020/12/05 13:30:59;;;;;;;;;;;;;;;10.53;70.06;99176.22;128638;1097;21517;-79
2020/12/05 13:33:28;;;;;;;;;;;;;;;10.55;70.29;99173.68;128690;1096;23171;-79
2020/12/05 13:35:55;;;;;;;;;;;;;;;10.55;70.26;99171.63;128560;1097;22253;-79
2020/12/05 13:38:23;;;;;;;;;;;;;;;10.55;69.46;99196.75;128596;1090;21602;-79
2020/12/05 13:40:51;;;;;;;;;;;;;;;10.56;70.48;99200.31;128688;1090;21496;-78
2020/12/05 13:43:19;;;;;;;;;;;;;;;10.54;70.56;99211.98;128630;1096;21602;-78
2020/12/05 13:45:47;;;;;;;;;;;;;;;10.54;69.54;99219.59;127603;1098;21496;-77
2020/12/05 13:48:15;;;;;;;;;;;;;;;10.50;70.37;99228.20;127572;1097;21497;-78
2020/12/05 13:50:43;;;;;;;;;;;;;;;10.50;70.85;99230.23;127451;1098;21562;-78
2020/12/05 13:53:11;;;;;;;;;;;;;;;10.48;70.02;99238.34;127498;1090;22729;-79
2020/12/05 13:55:39;;;;;;;;;;;;;;;10.46;70.04;99235.30;127546;1097;21499;-77
2020/12/05 13:58:07;;;;;;;;;;;;;;;10.45;70.01;99236.55;127475;1097;21965;-78
2020/12/05 14:00:35;;;;;;;;;;;;;;;10.47;69.58;99254.31;127480;1097;21630;-76
2020/12/05 14:03:03;;;;;;;;;;;;;;;10.46;69.83;99258.38;127334;1095;21495;-76
2020/12/05 14:05:31;;;;;;;;;;;;;;;10.44;69.94;99260.91;127622;1097;21488;-77
2020/12/05 14:07:59;;;;;;;;;;;;;;;10.43;69.76;99259.38;127592;1097;21497;-77
2020/12/05 14:10:27;;;;;;;;;;;;;;;10.41;70.65;99267.48;127550;1097;21487;-77
2020/12/05 14:12:56;;;;;;;;;;;;;;;10.39;70.03;99272.80;127420;1097;21504;-77
2020/12/05 14:15:25;;;;;;;;;;;;;;;10.37;70.58;99277.35;127375;1097;21532;-76
2020/12/05 14:17:53;;;;;;;;;;;;;;;10.33;70.75;99280.39;127384;1097;21615;-77
2020/12/05 14:20:22;;;;;;;;;;;;;;;10.29;69.84;99288.23;127320;1098;21503;-76